createdAt,value
2022-12-19T00:01:34.767Z,101534.94
2022-12-19T00:04:07.774Z,101531.53
2022-12-19T00:06:36.996Z,101532.38
2022-12-19T00:09:03.959Z,101527.00
2022-12-19T00:11:31.149Z,101529.03
2022-12-19T00:13:58.248Z,101525.28
2022-12-19T00:16:27.313Z,101518.06
2022-12-19T00:18:56.154Z,101518.44
2022-12-19T00:21:25.916Z,101511.97
2022-12-19T00:23:53.015Z,101511.84
2022-12-19T00:26:19.467Z,101508.38
2022-12-19T00:28:50.118Z,101514.31
2022-12-19T00:31:18.423Z,101495.41
2022-12-19T00:33:47.524Z,101485.25
2022-12-19T00:36:17.096Z,101490.38
2022-12-19T00:38:51.427Z,101481.63
2022-12-19T00:41:22.603Z,101482.59
2022-12-19T00:44:03.639Z,101476.28
2022-12-19T00:46:32.808Z,101467.13
2022-12-19T00:49:00.473Z,101473.94
2022-12-19T00:51:29.697Z,101475.72
2022-12-19T00:53:57.380Z,101463.88
2022-12-19T00:56:27.536Z,101445.28
2022-12-19T00:58:55.068Z,101455.91
2022-12-19T01:01:24.915Z,101452.06
2022-12-19T01:04:26.774Z,101438.66
2022-12-19T01:06:38.278Z,101444.38
2022-12-19T01:09:11.063Z,101433.53
2022-12-19T01:11:56.404Z,101444.41
2022-12-19T01:14:24.220Z,101444.28
2022-12-19T01:16:51.866Z,101440.63
2022-12-19T01:19:19.604Z,101441.81
2022-12-19T01:21:46.332Z,101433.94
2022-12-19T01:24:13.777Z,101438.22
2022-12-19T01:26:45.040Z,101437.44
2022-12-19T01:29:20.821Z,101441.53
2022-12-19T01:31:47.973Z,101427.75
2022-12-19T01:34:14.545Z,101419.19
2022-12-19T01:36:44.958Z,101418.88
2022-12-19T01:39:11.488Z,101417.28
2022-12-19T01:41:38.046Z,101406.44
2022-12-19T01:44:10.420Z,101407.03
2022-12-19T01:47:40.593Z,101397.53
2022-12-19T01:50:51.458Z,101387.31
2022-12-19T01:53:33.747Z,101394.75
2022-12-19T01:56:08.969Z,101382.13
2022-12-19T01:58:38.255Z,101383.72
2022-12-19T02:01:05.006Z,101378.09
2022-12-19T02:03:34.258Z,101394.56
2022-12-19T02:06:04.023Z,101393.97
2022-12-19T02:08:31.450Z,101391.94
2022-12-19T02:10:59.996Z,101394.41
2022-12-19T02:13:27.605Z,101379.97
2022-12-19T02:16:31.839Z,101374.19
2022-12-19T02:19:17.504Z,101377.25
2022-12-19T02:22:02.415Z,101368.72
2022-12-19T02:24:49.568Z,101360.59
2022-12-19T02:27:49.648Z,101356.88
2022-12-19T02:30:33.508Z,101363.09
2022-12-19T02:33:08.449Z,101355.13
2022-12-19T02:35:49.219Z,101350.16
2022-12-19T02:38:47.613Z,101347.00
2022-12-19T02:41:22.970Z,101335.50
2022-12-19T02:43:56.793Z,101331.50
2022-12-19T02:46:28.485Z,101329.84
2022-12-19T02:48:56.906Z,101331.16
2022-12-19T02:51:23.540Z,101344.16
2022-12-19T02:53:50.744Z,101354.56
2022-12-19T02:56:23.448Z,101355.47
2022-12-19T02:59:20.424Z,101340.78
2022-12-19T03:02:25.889Z,101327.09
2022-12-19T03:05:09.723Z,101318.50
2022-12-19T03:08:07.503Z,101317.63
2022-12-19T03:10:42.927Z,101319.47
2022-12-19T03:13:18.965Z,101316.56
2022-12-19T03:15:48.999Z,101304.47
2022-12-19T03:18:18.097Z,101293.84
2022-12-19T03:20:50.259Z,101290.56
2022-12-19T03:23:17.310Z,101290.84
2022-12-19T03:25:50.951Z,101288.19
2022-12-19T03:28:34.290Z,101284.66
2022-12-19T03:31:02.982Z,101274.81
2022-12-19T03:33:32.855Z,101271.44
2022-12-19T03:36:04.098Z,101258.38
2022-12-19T03:38:32.427Z,101257.69
2022-12-19T03:41:00.957Z,101246.44
2022-12-19T03:43:29.092Z,101242.91
2022-12-19T03:46:14.040Z,101242.97
2022-12-19T03:48:50.130Z,101240.06
2022-12-19T03:51:59.937Z,101217.84
2022-12-19T03:54:34.915Z,101215.19
2022-12-19T03:57:04.517Z,101227.22
2022-12-19T04:00:02.769Z,101222.97
2022-12-19T04:02:42.473Z,101228.78
2022-12-19T04:05:12.155Z,101226.13
2022-12-19T04:07:38.924Z,101218.78
2022-12-19T04:10:07.733Z,101225.81
2022-12-19T04:12:41.000Z,101222.69
2022-12-19T04:15:09.149Z,101209.31
2022-12-19T04:17:55.291Z,101211.19
2022-12-19T04:20:24.517Z,101213.19
2022-12-19T04:23:18.373Z,101203.28
2022-12-19T04:25:52.420Z,101202.38
2022-12-19T04:28:25.244Z,101209.16
2022-12-19T04:30:53.593Z,101211.41
2022-12-19T04:33:20.317Z,101206.94
2022-12-19T04:35:46.922Z,101206.06
2022-12-19T04:38:13.759Z,101205.84
2022-12-19T04:40:41.747Z,101205.50
2022-12-19T04:43:08.931Z,101198.50
2022-12-19T04:45:35.666Z,101192.81
2022-12-19T04:48:03.206Z,101178.53
2022-12-19T04:50:29.858Z,101177.97
2022-12-19T04:52:59.972Z,101169.38
2022-12-19T04:55:26.989Z,101177.06
2022-12-19T04:57:53.518Z,101166.72
2022-12-19T05:00:20.075Z,101163.66
2022-12-19T05:02:46.749Z,101157.66
2022-12-19T05:05:13.439Z,101151.91
2022-12-19T05:07:40.650Z,101153.75
2022-12-19T05:10:07.878Z,101152.34
2022-12-19T05:12:34.489Z,101149.16
2022-12-19T05:15:01.038Z,101147.38
2022-12-19T05:17:27.543Z,101148.53
2022-12-19T05:19:54.408Z,101138.66
2022-12-19T05:22:20.927Z,101138.75
2022-12-19T05:24:47.471Z,101132.88
2022-12-19T05:27:14.126Z,101142.69
2022-12-19T05:29:40.664Z,101135.09
2022-12-19T05:32:07.255Z,101127.59
2022-12-19T05:34:42.673Z,101124.63
2022-12-19T05:37:09.259Z,101121.28
2022-12-19T05:39:35.891Z,101116.00
2022-12-19T05:42:02.387Z,101105.41
2022-12-19T05:44:28.971Z,101117.03
2022-12-19T05:46:55.700Z,101108.88
2022-12-19T05:49:22.283Z,101118.00
2022-12-19T05:51:48.930Z,101115.06
2022-12-19T05:54:15.460Z,101105.81
2022-12-19T05:56:42.014Z,101118.25
2022-12-19T05:59:08.713Z,101121.47
2022-12-19T06:01:35.344Z,101117.44
2022-12-19T06:04:02.006Z,101118.41
2022-12-19T06:06:28.577Z,101122.91
2022-12-19T06:08:59.037Z,101117.38
2022-12-19T06:11:27.191Z,101115.06
2022-12-19T06:13:54.069Z,101127.97
2022-12-19T06:16:22.200Z,101115.28
2022-12-19T06:18:49.171Z,101120.97
2022-12-19T06:21:21.708Z,101108.50
2022-12-19T06:23:50.078Z,101110.78
2022-12-19T06:26:20.087Z,101117.09
2022-12-19T06:28:51.998Z,101115.63
2022-12-19T06:31:20.245Z,101109.38
2022-12-19T06:33:46.935Z,101114.50
2022-12-19T06:36:22.236Z,101115.78
2022-12-19T06:38:50.460Z,101122.69
2022-12-19T06:41:36.869Z,101118.22
2022-12-19T06:44:06.569Z,101121.75
2022-12-19T06:46:33.961Z,101112.75
2022-12-19T06:49:00.737Z,101114.41
2022-12-19T06:51:27.288Z,101120.63
2022-12-19T06:53:54.138Z,101116.44
2022-12-19T06:56:20.751Z,101116.91
2022-12-19T06:58:48.452Z,101107.56
2022-12-19T07:01:41.876Z,101109.34
2022-12-19T07:04:10.550Z,101108.06
2022-12-19T07:06:37.096Z,101109.94
2022-12-19T07:09:04.063Z,101109.16
2022-12-19T07:11:30.660Z,101109.59
2022-12-19T07:14:06.422Z,101105.56
2022-12-19T07:16:35.736Z,101111.81
2022-12-19T07:19:02.356Z,101114.44
2022-12-19T07:21:29.461Z,101114.38
2022-12-19T07:23:56.127Z,101112.97
2022-12-19T07:26:23.110Z,101113.28
2022-12-19T07:28:49.987Z,101106.66
2022-12-19T07:31:16.640Z,101110.34
2022-12-19T07:33:43.302Z,101108.19
2022-12-19T07:36:09.889Z,101108.63
2022-12-19T07:38:36.703Z,101101.38
2022-12-19T07:41:03.277Z,101104.31
2022-12-19T07:43:30.083Z,101113.44
2022-12-19T07:45:57.117Z,101101.94
2022-12-19T07:48:24.366Z,101109.81
2022-12-19T07:50:52.831Z,101108.06
2022-12-19T07:53:19.428Z,101111.84
2022-12-19T07:55:45.916Z,101110.09
2022-12-19T07:58:15.514Z,101109.44
2022-12-19T08:00:41.928Z,101098.25
2022-12-19T08:03:08.674Z,101104.47
2022-12-19T08:05:35.352Z,101110.16
2022-12-19T08:08:01.937Z,101099.53
2022-12-19T08:10:28.522Z,101101.56
2022-12-19T08:12:55.105Z,101109.03
2022-12-19T08:15:21.659Z,101103.00
2022-12-19T08:17:48.329Z,101112.03
2022-12-19T08:20:14.952Z,101107.66
2022-12-19T08:22:41.493Z,101099.03
2022-12-19T08:25:08.608Z,101104.34
2022-12-19T08:27:38.317Z,101107.16
2022-12-19T08:30:05.772Z,101092.41
2022-12-19T08:32:32.535Z,101108.34
2022-12-19T08:34:59.100Z,101097.97
2022-12-19T08:37:25.761Z,101103.63
2022-12-19T08:39:55.629Z,101105.47
2022-12-19T08:42:24.330Z,101096.31
2022-12-19T08:44:51.035Z,101102.97
2022-12-19T08:47:17.887Z,101104.59
2022-12-19T08:49:44.557Z,101102.56
2022-12-19T08:52:11.127Z,101108.34
2022-12-19T08:54:37.733Z,101107.88
2022-12-19T08:57:04.372Z,101108.72
2022-12-19T08:59:32.098Z,101108.66
2022-12-19T09:02:00.512Z,101113.47
2022-12-19T09:05:58.839Z,101102.38
2022-12-19T09:07:15.394Z,101097.25
2022-12-19T09:09:43.313Z,101106.63
2022-12-19T09:12:09.911Z,101101.59
2022-12-19T09:14:36.529Z,101089.75
2022-12-19T09:17:04.572Z,101089.53
2022-12-19T09:19:31.777Z,101096.88
2022-12-19T09:21:58.822Z,101091.22
2022-12-19T09:24:25.516Z,101103.16
2022-12-19T09:26:52.444Z,101091.78
2022-12-19T09:29:20.979Z,101106.75
2022-12-19T09:31:55.401Z,101098.06
2022-12-19T09:34:24.851Z,101101.19
2022-12-19T09:37:06.947Z,101095.34
2022-12-19T09:39:34.925Z,101104.13
2022-12-19T09:42:19.912Z,101099.38
2022-12-19T09:45:31.301Z,101093.88
2022-12-19T09:48:01.362Z,101093.59
2022-12-19T09:50:51.781Z,101098.44
2022-12-19T09:53:25.795Z,101094.81
2022-12-19T09:55:54.022Z,101090.25
2022-12-19T09:58:43.076Z,101086.78
2022-12-19T10:01:20.504Z,101087.13
2022-12-19T10:03:59.168Z,101084.09
2022-12-19T10:07:09.384Z,101090.13
2022-12-19T10:09:37.413Z,101083.88
2022-12-19T10:12:38.707Z,101075.13
2022-12-19T10:15:08.720Z,101092.47
2022-12-19T10:17:52.001Z,101100.69
2022-12-19T10:20:30.247Z,101096.53
2022-12-19T10:23:17.056Z,101086.13
2022-12-19T10:26:04.954Z,101084.66
2022-12-19T10:28:58.027Z,101089.56
2022-12-19T10:32:00.742Z,101088.72
2022-12-19T10:34:40.837Z,101080.97
2022-12-19T10:37:47.223Z,101081.03
2022-12-19T10:40:31.866Z,101074.16
2022-12-19T10:43:32.142Z,101078.50
2022-12-19T10:46:09.748Z,101076.16
2022-12-19T10:48:36.388Z,101068.72
2022-12-19T10:51:06.477Z,101066.84
2022-12-19T10:53:34.096Z,101073.00
2022-12-19T10:56:11.769Z,101072.63
2022-12-19T10:58:44.171Z,101071.03
2022-12-19T11:01:17.518Z,101065.84
2022-12-19T11:03:51.572Z,101064.50
2022-12-19T11:06:34.822Z,101060.47
2022-12-19T11:09:36.926Z,101061.50
2022-12-19T11:16:01.032Z,101053.75
2022-12-19T11:19:27.866Z,101056.22
2022-12-19T11:22:40.841Z,101042.66
2022-12-19T11:29:32.285Z,101044.63
2022-12-19T11:29:37.375Z,101047.63
2022-12-19T11:30:43.543Z,101046.53
2022-12-19T11:32:42.906Z,101030.88
2022-12-19T11:35:17.271Z,101037.66
2022-12-19T11:37:47.270Z,101031.72
2022-12-19T11:40:17.408Z,101039.38
2022-12-19T11:43:10.857Z,101036.31
2022-12-19T11:45:59.614Z,101026.69
2022-12-19T11:48:46.150Z,101019.81
2022-12-19T11:51:21.101Z,101029.81
2022-12-19T11:54:03.108Z,101030.50
2022-12-19T11:56:32.108Z,101038.59
2022-12-19T11:59:12.912Z,101031.19
2022-12-19T12:02:36.567Z,101034.38
2022-12-19T12:05:47.784Z,101036.44
2022-12-19T12:10:15.268Z,101031.78
2022-12-19T12:17:12.664Z,101038.44
2022-12-19T12:19:37.299Z,101033.53
2022-12-19T12:31:08.775Z,101037.31
2022-12-19T12:31:10.966Z,101038.88
2022-12-19T12:31:22.909Z,101043.00
2022-12-19T12:31:54.265Z,101043.78
2022-12-19T12:32:04.827Z,101031.16
2022-12-19T12:35:31.719Z,101037.03
2022-12-19T12:39:57.968Z,101038.63
2022-12-19T12:42:45.282Z,101030.22
2022-12-19T12:45:45.095Z,101021.50
2022-12-19T12:48:21.847Z,101012.47
2022-12-19T12:50:54.946Z,101023.31
2022-12-19T12:53:31.650Z,101035.63
2022-12-19T12:56:01.660Z,101040.56
2022-12-19T12:58:43.410Z,101040.78
2022-12-19T13:01:35.006Z,101036.31
2022-12-19T13:04:26.811Z,101037.03
2022-12-19T13:06:53.310Z,101029.44
2022-12-19T13:09:36.612Z,101009.53
2022-12-19T13:12:42.946Z,101008.25
2022-12-19T13:15:27.537Z,101007.00
2022-12-19T13:17:54.053Z,101006.69
2022-12-19T13:20:29.507Z,101002.78
2022-12-19T13:22:59.056Z,101001.81
2022-12-19T13:25:35.534Z,101002.59
2022-12-19T13:28:02.171Z,100991.09
2022-12-19T13:30:30.962Z,100997.03
2022-12-19T13:33:00.865Z,100995.22
2022-12-19T13:36:25.230Z,100991.84
2022-12-19T13:39:55.430Z,100999.47
2022-12-19T13:41:45.150Z,100994.03
2022-12-19T13:44:12.222Z,100997.34
2022-12-19T13:46:42.809Z,100996.00
2022-12-19T13:49:34.780Z,100998.88
2022-12-19T13:52:03.200Z,100988.41
2022-12-19T13:54:45.634Z,100991.25
2022-12-19T13:57:31.954Z,101004.00
2022-12-19T14:00:07.161Z,100993.75
2022-12-19T14:02:46.704Z,100985.88
2022-12-19T14:06:14.751Z,100981.00
2022-12-19T14:08:28.811Z,100977.63
2022-12-19T14:11:42.495Z,100979.31
2022-12-19T14:14:13.302Z,100979.22
2022-12-19T14:16:45.877Z,100974.00
2022-12-19T14:19:24.751Z,100961.78
2022-12-19T14:22:05.172Z,100957.28
2022-12-19T14:24:38.815Z,100957.56
2022-12-19T14:28:25.686Z,100958.06
2022-12-19T14:30:29.873Z,100959.03
2022-12-19T14:33:46.640Z,100954.06
2022-12-19T14:36:08.558Z,100953.88
2022-12-19T14:39:22.371Z,100954.63
2022-12-19T14:42:49.246Z,100950.94
2022-12-19T14:52:25.620Z,100949.44
2022-12-19T14:52:44.923Z,100941.59
2022-12-19T14:54:39.879Z,100957.31
2022-12-19T14:58:07.915Z,100936.25
2022-12-19T15:01:07.392Z,100943.22
2022-12-19T15:07:07.174Z,100922.69
2022-12-19T15:11:04.268Z,100937.78
2022-12-19T15:14:52.563Z,100934.50
2022-12-19T15:16:04.270Z,100937.00
2022-12-19T15:18:42.473Z,100941.59
2022-12-19T15:21:18.406Z,100946.19
2022-12-19T15:23:45.711Z,100941.88
2022-12-19T15:26:35.329Z,100941.13
2022-12-19T15:29:03.107Z,100941.16
2022-12-19T15:31:45.071Z,100936.31
2022-12-19T15:34:44.348Z,100942.28
2022-12-19T15:37:17.278Z,100925.91
2022-12-19T15:39:45.181Z,100932.16
2022-12-19T15:42:24.907Z,100930.75
2022-12-19T15:44:53.364Z,100930.31
2022-12-19T15:47:24.896Z,100925.22
2022-12-19T15:49:51.464Z,100925.41
2022-12-19T15:52:25.584Z,100913.06
2022-12-19T15:54:52.165Z,100923.00
2022-12-19T15:57:39.350Z,100909.84
2022-12-19T16:00:23.186Z,100907.06
2022-12-19T16:05:38.844Z,100907.19
2022-12-19T16:08:12.277Z,100899.13
2022-12-19T16:10:40.368Z,100905.25
2022-12-19T16:13:14.566Z,100892.97
2022-12-19T16:15:42.059Z,100890.72
2022-12-19T16:18:13.778Z,100885.66
2022-12-19T16:20:41.351Z,100882.19
2022-12-19T16:23:10.926Z,100881.09
2022-12-19T16:25:45.589Z,100880.25
2022-12-19T16:28:26.330Z,100878.22
2022-12-19T16:30:55.115Z,100879.13
2022-12-19T16:33:28.629Z,100878.56
2022-12-19T16:36:05.159Z,100867.13
2022-12-19T16:38:33.331Z,100873.31
2022-12-19T16:41:01.481Z,100870.47
2022-12-19T16:43:30.170Z,100870.97
2022-12-19T16:46:01.129Z,100862.94
2022-12-19T16:48:30.292Z,100862.69
2022-12-19T16:50:58.480Z,100871.06
2022-12-19T16:53:31.118Z,100872.22
2022-12-19T16:55:59.729Z,100882.16
2022-12-19T16:58:28.340Z,100872.47
2022-12-19T17:00:55.746Z,100891.97
2022-12-19T17:03:49.063Z,100901.41
2022-12-19T17:06:18.973Z,100921.28
2022-12-19T17:08:45.606Z,100927.28
2022-12-19T17:11:31.027Z,100924.25
2022-12-19T17:14:06.191Z,100932.81
2022-12-19T17:16:33.331Z,100933.84
2022-12-19T17:19:00.915Z,100938.28
2022-12-19T17:21:27.597Z,100939.97
2022-12-19T17:23:54.240Z,100952.25
2022-12-19T17:26:46.141Z,100945.94
2022-12-19T17:29:13.708Z,100939.13
2022-12-19T17:31:41.697Z,100935.94
2022-12-19T17:34:24.631Z,100946.91
2022-12-19T17:36:54.708Z,100940.75
2022-12-19T17:39:25.191Z,100940.84
2022-12-19T17:41:52.812Z,100930.25
2022-12-19T17:44:19.623Z,100928.44
2022-12-19T17:46:47.822Z,100924.97
2022-12-19T17:49:23.705Z,100913.56
2022-12-19T17:51:53.477Z,100921.53
2022-12-19T17:54:21.545Z,100921.22
2022-12-19T17:56:51.328Z,100922.22
2022-12-19T17:59:18.227Z,100932.09
2022-12-19T18:01:48.309Z,100931.91
2022-12-19T18:04:18.513Z,100930.88
2022-12-19T18:06:45.548Z,100932.69
2022-12-19T18:09:25.223Z,100928.25
2022-12-19T18:11:57.900Z,100930.31
2022-12-19T18:17:10.067Z,100923.28
2022-12-19T18:19:36.712Z,100930.31
2022-12-19T18:22:29.165Z,100929.78
2022-12-19T18:24:56.638Z,100915.19
2022-12-19T18:27:26.316Z,100922.19
2022-12-19T18:29:54.891Z,100932.41
2022-12-19T18:32:22.176Z,100921.16
2022-12-19T18:34:48.875Z,100932.63
2022-12-19T18:37:15.880Z,100909.88
2022-12-19T18:39:42.676Z,100937.66
2022-12-19T18:42:19.418Z,100927.28
2022-12-19T18:44:46.154Z,100918.47
2022-12-19T18:47:20.969Z,100921.63
2022-12-19T18:49:51.929Z,100920.13
2022-12-19T18:52:18.540Z,100907.19
2022-12-19T18:54:45.117Z,100913.78
2022-12-19T18:57:11.692Z,100923.19
2022-12-19T18:59:38.608Z,100924.03
2022-12-19T19:02:24.575Z,100924.25
2022-12-19T19:04:51.616Z,100924.25
2022-12-19T19:07:18.213Z,100929.41
2022-12-19T19:09:44.913Z,100920.75
2022-12-19T19:12:37.600Z,100910.22
2022-12-19T19:15:05.780Z,100913.66
2022-12-19T19:17:32.456Z,100919.50
2022-12-19T19:21:01.051Z,100919.06
2022-12-19T19:24:20.124Z,100924.13
2022-12-19T19:26:46.840Z,100924.88
2022-12-19T19:29:14.782Z,100933.19
2022-12-19T19:31:45.874Z,100929.31
2022-12-19T19:34:18.196Z,100938.25
2022-12-19T19:36:49.490Z,100940.69
2022-12-19T19:39:17.135Z,100933.47
2022-12-19T19:41:43.708Z,100930.78
2022-12-19T19:44:10.287Z,100936.78
2022-12-19T19:46:37.497Z,100935.09
2022-12-19T19:49:04.518Z,100933.16
2022-12-19T19:51:31.633Z,100933.31
2022-12-19T19:53:58.440Z,100931.66
2022-12-19T19:56:28.387Z,100923.16
2022-12-19T19:58:57.620Z,100941.16
2022-12-19T20:01:24.561Z,100932.41
2022-12-19T20:03:51.558Z,100934.44
2022-12-19T20:06:19.177Z,100942.69
2022-12-19T20:08:45.973Z,100940.78
2022-12-19T20:11:24.283Z,100946.97
2022-12-19T20:13:50.837Z,100941.94
2022-12-19T20:16:20.059Z,100943.00
2022-12-19T20:18:57.534Z,100943.25
2022-12-19T20:21:24.862Z,100940.25
2022-12-19T20:23:52.103Z,100934.84
2022-12-19T20:26:19.024Z,100935.69
2022-12-19T20:28:49.250Z,100951.94
2022-12-19T20:31:18.696Z,100947.69
2022-12-19T20:33:46.381Z,100952.88
2022-12-19T20:36:13.911Z,100938.44
2022-12-19T20:38:40.630Z,100940.19
2022-12-19T20:41:07.392Z,100966.19
2022-12-19T20:43:34.317Z,100963.59
2022-12-19T20:46:13.957Z,100973.38
2022-12-19T20:48:41.666Z,100965.66
2022-12-19T20:51:08.886Z,100955.75
2022-12-19T20:53:36.738Z,100971.19
2022-12-19T20:56:18.720Z,100971.09
2022-12-19T20:58:46.403Z,100970.38
2022-12-19T21:01:16.714Z,100975.06
2022-12-19T21:03:44.420Z,100963.31
2022-12-19T21:06:13.617Z,100972.34
2022-12-19T21:08:40.674Z,100976.81
2022-12-19T21:11:08.849Z,100952.19
2022-12-19T21:14:01.100Z,100961.13
2022-12-19T21:16:27.848Z,100930.81
2022-12-19T21:18:54.485Z,100940.22
2022-12-19T21:21:25.396Z,100946.00
2022-12-19T21:23:53.509Z,100922.53
2022-12-19T21:26:21.917Z,100949.06
2022-12-19T21:28:48.676Z,100943.69
2022-12-19T21:31:21.779Z,100938.94
2022-12-19T21:33:49.378Z,100942.59
2022-12-19T21:36:19.275Z,100939.03
2022-12-19T21:38:47.426Z,100946.22
2022-12-19T21:41:18.782Z,100940.25
2022-12-19T21:43:55.693Z,100949.28
2022-12-19T21:46:26.885Z,100950.47
2022-12-19T21:48:55.270Z,100933.34
2022-12-19T21:51:25.231Z,100940.50
2022-12-19T21:53:56.618Z,100939.66
2022-12-19T21:56:41.705Z,100938.84
2022-12-19T21:59:17.642Z,100930.44
2022-12-19T22:01:45.177Z,100923.47
2022-12-19T22:04:15.554Z,100920.03
2022-12-19T22:06:42.136Z,100915.81
2022-12-19T22:09:16.927Z,100906.41
2022-12-19T22:11:43.737Z,100917.41
2022-12-19T22:14:15.115Z,100915.81
2022-12-19T22:16:42.223Z,100921.03
2022-12-19T22:19:12.714Z,100924.41
2022-12-19T22:21:39.345Z,100933.03
2022-12-19T22:24:06.345Z,100932.38
2022-12-19T22:26:33.232Z,100922.88
2022-12-19T22:28:59.884Z,100917.78
2022-12-19T22:31:29.571Z,100928.25
2022-12-19T22:34:00.132Z,100917.69
2022-12-19T22:36:29.000Z,100915.31
2022-12-19T22:38:57.415Z,100908.50
2022-12-19T22:41:24.546Z,100908.66
2022-12-19T22:43:52.807Z,100915.78
2022-12-19T22:46:26.329Z,100912.25
2022-12-19T22:48:55.947Z,100917.50
2022-12-19T22:51:22.769Z,100916.75
2022-12-19T22:53:49.427Z,100918.00
2022-12-19T22:56:18.556Z,100910.59
2022-12-19T22:58:48.759Z,100905.53
2022-12-19T23:01:21.627Z,100917.63
2022-12-19T23:03:50.757Z,100908.06
2022-12-19T23:06:18.361Z,100898.97
2022-12-19T23:08:45.080Z,100901.72
2022-12-19T23:11:16.972Z,100905.25
2022-12-19T23:13:46.567Z,100902.50
2022-12-19T23:16:16.083Z,100903.81
2022-12-19T23:18:43.360Z,100898.59
2022-12-19T23:21:18.221Z,100893.44
2022-12-19T23:23:46.857Z,100891.34
2022-12-19T23:26:16.914Z,100889.34
2022-12-19T23:29:08.646Z,100890.81
2022-12-19T23:31:35.892Z,100896.00
2022-12-19T23:34:02.762Z,100895.09
2022-12-19T23:37:08.987Z,100885.75
2022-12-19T23:39:18.528Z,100894.94
2022-12-19T23:41:45.437Z,100891.41
2022-12-19T23:44:12.322Z,100890.72
2022-12-19T23:46:39.968Z,100886.44
2022-12-19T23:49:06.783Z,100890.16
2022-12-19T23:51:33.360Z,100898.44
2022-12-19T23:54:00.157Z,100884.63
2022-12-19T23:56:30.245Z,100889.91
2022-12-19T23:58:57.394Z,100886.72
